Time;durP1;ratioP1;P1;durP2;ratioP2;P2;SDS_P1;SDS_P2;PMS_P1;PMS_P2;Temp;Humidity;BMP_temperature;BMP_pressure;BME280_temperature;BME280_humidity;BME280_pressure;Samples;Min_cycle;Max_cycle;Signal;HPM_P1;HPM_P2
2022/04/09 00:03:27;;;;;;;1.53;1.10;;;;;;;1.46;93.27;98172.28;8193140;28;20455;-71
2022/04/09 00:07:28;;;;;;;1.20;1.00;;;;;;;1.48;93.54;98187.66;8198734;28;20159;-71
2022/04/09 00:11:30;;;;;;;1.43;1.10;;;;;;;1.49;92.89;98200.47;8196333;28;20057;-71
2022/04/09 00:15:31;;;;;;;1.40;1.13;;;;;;;1.55;93.50;98207.34;8194016;28;20050;-71
2022/04/09 00:19:33;;;;;;;1.70;1.10;;;;;;;1.53;93.43;98211.59;8198096;28;20447;-70
2022/04/09 00:23:34;;;;;;;1.20;1.10;;;;;;;1.49;93.36;98213.25;8178792;28;20046;-70
2022/04/09 00:27:36;;;;;;;1.03;1.03;;;;;;;1.48;92.58;98226.03;8197497;28;20142;-71
2022/04/09 00:31:38;;;;;;;3.17;1.25;;;;;;;1.46;92.96;98233.69;8176030;28;20375;-70
2022/04/09 00:35:39;;;;;;;1.77;1.57;;;;;;;1.42;93.22;98247.25;8177936;28;20363;-70
2022/04/09 00:39:41;;;;;;;2.10;1.40;;;;;;;1.43;93.28;98248.97;8164901;29;20043;-70
2022/04/09 00:43:43;;;;;;;1.67;1.27;;;;;;;1.42;93.31;98248.94;8161843;29;20055;-70
2022/04/09 00:47:45;;;;;;;2.08;1.52;;;;;;;1.42;93.61;98269.41;8158757;28;20081;-70
2022/04/09 00:51:50;;;;;;;2.80;1.50;;;;;;;1.40;93.15;98284.72;8162159;29;20047;-71
2022/04/09 01:00:14;;;;;;;1.83;1.73;;;;;;;1.36;93.49;98300.88;8162391;29;21579;-71
2022/04/09 01:04:16;;;;;;;2.30;1.70;;;;;;;1.33;93.95;98316.19;8162709;28;20166;-70
2022/04/09 01:08:18;;;;;;;2.47;1.80;;;;;;;1.34;93.23;98332.38;8162155;28;20079;-70
2022/04/09 01:12:19;;;;;;;4.20;1.77;;;;;;;1.34;93.50;98342.59;8163302;29;20078;-71
2022/04/09 01:16:22;;;;;;;3.20;2.23;;;;;;;1.38;93.70;98340.09;8157706;28;20067;-70
2022/04/09 01:20:28;;;;;;;2.87;2.33;;;;;;;1.39;94.02;98351.19;8162081;29;20056;-70
2022/04/09 01:24:30;;;;;;;2.50;2.30;;;;;;;1.42;94.20;98356.34;8162450;29;20551;-71
2022/04/09 01:28:32;;;;;;;4.27;2.90;;;;;;;1.45;94.29;98374.31;8154158;29;20359;-71
2022/04/09 01:32:34;;;;;;;4.13;3.33;;;;;;;1.45;93.95;98387.13;8159399;28;20856;-71
2022/04/09 01:36:35;;;;;;;3.17;2.87;;;;;;;1.46;94.28;98401.63;8160655;29;20055;-71
2022/04/09 01:40:37;;;;;;;3.33;3.03;;;;;;;1.43;94.21;98411.78;8169132;29;20057;-71
2022/04/09 01:44:39;;;;;;;5.18;3.80;;;;;;;1.47;94.25;98421.25;8178889;29;20054;-71
2022/04/09 01:48:41;;;;;;;3.37;3.07;;;;;;;1.47;94.56;98434.03;8187776;28;20086;-71
2022/04/09 01:52:42;;;;;;;4.90;4.25;;;;;;;1.45;94.00;98443.38;8180885;28;20134;-71
2022/04/09 01:56:44;;;;;;;5.03;3.33;;;;;;;1.39;94.29;98450.94;8195748;28;20073;-71
2022/04/09 02:00:45;;;;;;;3.93;3.50;;;;;;;1.35;93.84;98472.19;8178248;28;20047;-71
2022/04/09 02:04:47;;;;;;;4.00;3.70;;;;;;;1.33;94.44;98479.81;8214425;28;20471;-71
2022/04/09 02:08:49;;;;;;;4.17;3.77;;;;;;;1.32;93.95;98483.22;8214778;28;20161;-72
2022/04/09 02:12:50;;;;;;;4.05;3.60;;;;;;;1.31;93.83;98494.28;8214646;28;20077;-71
2022/04/09 02:16:52;;;;;;;4.77;4.33;;;;;;;1.25;94.08;98501.81;8195145;28;20125;-71
2022/04/09 02:20:55;;;;;;;5.20;4.60;;;;;;;1.18;94.04;98507.69;8200511;28;20078;-70
2022/04/09 02:24:56;;;;;;;7.43;4.20;;;;;;;1.17;93.96;98527.28;8181519;28;20047;-69
2022/04/09 02:28:57;;;;;;;4.97;4.50;;;;;;;1.13;93.77;98530.59;8176838;28;20042;-69
2022/04/09 02:32:59;;;;;;;4.03;3.67;;;;;;;1.08;93.88;98544.16;8189096;28;20082;-69
2022/04/09 02:37:01;;;;;;;5.00;4.50;;;;;;;1.04;94.22;98553.41;8212964;28;20046;-69
2022/04/09 02:41:03;;;;;;;;;;;;;;;0.98;93.67;98549.91;8215453;28;20074;-69
2022/04/09 02:45:05;;;;;;;4.27;3.87;;;;;;;0.96;94.11;98561.78;8192521;28;20020;-69
2022/04/09 02:49:07;;;;;;;3.70;3.40;;;;;;;0.92;93.90;98577.91;8165376;29;20069;-69
2022/04/09 02:53:11;;;;;;;6.03;3.90;;;;;;;0.85;93.88;98587.09;8180444;29;20039;-69
2022/04/09 02:57:13;;;;;;;5.63;4.83;;;;;;;0.74;94.16;98581.78;8165816;29;20051;-69
2022/04/09 03:01:14;;;;;;;5.77;4.30;;;;;;;0.74;94.10;98606.47;8177849;28;20402;-69
2022/04/09 03:05:16;;;;;;;6.17;5.40;;;;;;;0.72;94.27;98613.22;8178791;29;21613;-70
2022/04/09 03:09:17;;;;;;;4.27;3.87;;;;;;;0.71;94.38;98627.69;8177966;29;20051;-69
2022/04/09 03:13:19;;;;;;;6.30;4.80;;;;;;;0.68;94.23;98621.66;8177390;29;21582;-69
2022/04/09 03:17:20;;;;;;;5.03;4.30;;;;;;;0.67;94.79;98635.25;8205423;28;20150;-69
2022/04/09 03:21:22;;;;;;;6.53;4.67;;;;;;;0.62;94.53;98637.72;8239689;28;20048;-70
2022/04/09 03:25:23;;;;;;;6.10;4.70;;;;;;;0.57;94.85;98636.75;8237898;28;20688;-69
2022/04/09 03:29:25;;;;;;;4.83;4.33;;;;;;;0.57;94.88;98647.81;8239422;28;20053;-69
2022/04/09 03:33:26;;;;;;;7.27;3.97;;;;;;;0.57;94.84;98652.94;8241816;28;20066;-69
2022/04/09 03:37:28;;;;;;;5.07;4.57;;;;;;;0.51;94.82;98665.53;8214038;28;20076;-69
2022/04/09 03:41:29;;;;;;;5.57;4.63;;;;;;;0.49;95.26;98676.56;8228418;28;20051;-70
2022/04/09 03:45:31;;;;;;;6.07;5.10;;;;;;;0.48;94.83;98685.91;8224330;28;20043;-69
2022/04/09 03:49:33;;;;;;;4.60;4.20;;;;;;;0.46;95.04;98689.25;8245274;28;20064;-69
2022/04/09 03:53:35;;;;;;;7.07;5.00;;;;;;;0.44;95.22;98699.44;8243588;28;20070;-69
2022/04/09 03:57:36;;;;;;;7.93;5.40;;;;;;;0.46;95.32;98707.13;8245458;28;20046;-69
2022/04/09 04:01:37;;;;;;;7.07;4.27;;;;;;;0.49;95.25;98705.50;8224368;28;20579;-70
2022/04/09 04:05:40;;;;;;;5.93;4.13;;;;;;;0.50;95.30;98719.13;8246967;28;20053;-69
2022/04/09 04:09:41;;;;;;;6.22;5.63;;;;;;;0.55;95.25;98726.09;8246831;28;20366;-70
2022/04/09 04:13:43;;;;;;;7.87;5.10;;;;;;;0.55;95.41;98720.13;8244487;28;21104;-69
2022/04/09 04:17:45;;;;;;;6.47;5.33;;;;;;;0.53;95.74;98729.44;8224222;28;20054;-69
2022/04/09 04:21:46;;;;;;;6.90;5.03;;;;;;;0.53;95.85;98748.16;8226373;28;20074;-70
2022/04/09 04:25:48;;;;;;;6.47;4.83;;;;;;;0.54;95.98;98760.13;8243848;28;20598;-70
2022/04/09 04:29:50;;;;;;;5.97;4.60;;;;;;;0.53;95.57;98767.72;8246388;28;20081;-70
2022/04/09 04:33:51;;;;;;;6.37;5.20;;;;;;;0.54;95.75;98780.56;8242771;28;20085;-70
2022/04/09 04:37:54;;;;;;;6.50;5.27;;;;;;;0.59;95.96;98791.75;8226040;28;20125;-69
2022/04/09 04:41:55;;;;;;;;;;;;;;;0.68;96.07;98803.03;8208192;28;20050;-70
2022/04/09 04:45:57;;;;;;;4.97;4.33;;;;;;;0.70;96.19;98801.38;8219136;28;19953;-70
2022/04/09 04:50:04;;;;;;;6.40;5.10;;;;;;;0.69;96.18;98804.75;8220455;28;20086;-70
2022/04/09 04:54:05;;;;;;;7.73;5.80;;;;;;;0.71;95.95;98808.19;8208122;28;20368;-70
2022/04/09 04:58:07;;;;;;;6.90;5.30;;;;;;;0.68;96.14;98815.78;8222847;28;20050;-70
2022/04/09 05:02:08;;;;;;;8.33;5.47;;;;;;;0.73;96.38;98821.91;8216258;28;20082;-72
2022/04/09 05:06:10;;;;;;;6.13;5.27;;;;;;;0.75;96.41;98836.44;8206876;28;20055;-72
2022/04/09 05:10:17;;;;;;;7.07;5.60;;;;;;;0.75;95.86;98843.25;8220773;28;20082;-72
2022/04/09 05:14:18;;;;;;;5.80;4.73;;;;;;;0.80;96.10;98854.44;8219604;28;20065;-70
2022/04/09 05:18:19;;;;;;;5.80;5.03;;;;;;;0.81;95.52;98864.69;8213800;28;20054;-70
2022/04/09 05:22:22;;;;;;;6.63;4.93;;;;;;;0.88;95.90;98870.81;8216682;28;20070;-72
2022/04/09 05:26:23;;;;;;;6.97;5.28;;;;;;;0.96;95.70;98874.44;8202755;28;20739;-72
2022/04/09 05:30:25;;;;;;;9.37;5.17;;;;;;;1.05;95.91;98878.91;8200831;28;20423;-72
2022/04/09 05:34:26;;;;;;;5.57;4.80;;;;;;;1.13;95.44;98895.31;8217700;28;20460;-73
2022/04/09 05:38:28;;;;;;;5.97;5.20;;;;;;;1.18;95.15;98896.28;8203007;28;20130;-72
2022/04/09 05:42:29;;;;;;;5.00;4.37;;;;;;;1.21;95.35;98904.03;8217670;28;20062;-71
2022/04/09 05:46:31;;;;;;;5.90;5.30;;;;;;;1.34;95.84;98902.66;8200747;28;20293;-71
2022/04/09 05:50:36;;;;;;;8.37;4.90;;;;;;;1.49;95.46;98909.00;8204774;28;20125;-71
2022/04/09 05:54:38;;;;;;;8.27;5.60;;;;;;;1.65;95.59;98922.16;8220969;28;20153;-71
2022/04/09 05:58:41;;;;;;;6.73;5.33;;;;;;;1.74;95.85;98924.91;8217089;28;20057;-69
2022/04/09 06:02:57;;;;;;;8.93;5.43;;;;;;;1.86;95.62;98934.56;8211737;28;20705;-71
2022/04/09 06:07:00;;;;;;;9.97;5.23;;;;;;;1.84;94.59;98939.66;8201261;28;20043;-71
2022/04/09 06:11:02;;;;;;;7.23;4.57;;;;;;;1.88;94.32;98948.28;8218485;28;20053;-71
2022/04/09 06:15:04;;;;;;;8.10;5.00;;;;;;;1.92;94.35;98950.06;8213773;28;20134;-70
2022/04/09 06:19:05;;;;;;;5.95;4.95;;;;;;;1.98;94.01;98956.22;8223415;28;20051;-69
2022/04/09 06:23:08;;;;;;;7.20;4.63;;;;;;;2.13;94.08;98968.47;8224558;28;20065;-71
2022/04/09 06:27:13;;;;;;;10.23;4.28;;;;;;;2.17;93.42;98962.59;8221830;28;20086;-71
2022/04/09 06:31:14;;;;;;;5.30;4.50;;;;;;;2.15;92.67;98969.34;8210081;28;20058;-71
2022/04/09 06:35:17;;;;;;;9.13;4.60;;;;;;;2.35;93.35;98970.69;8213659;28;20062;-71
2022/04/09 06:39:20;;;;;;;7.13;4.47;;;;;;;2.88;92.23;98976.03;8196290;28;20066;-72
2022/04/09 06:43:22;;;;;;;8.27;4.33;;;;;;;3.06;91.52;98978.06;8200018;28;20054;-71
2022/04/09 06:47:23;;;;;;;6.67;3.90;;;;;;;3.19;90.47;98985.13;8212950;28;20059;-71
2022/04/09 06:51:25;;;;;;;10.07;4.53;;;;;;;3.16;89.22;98986.78;8216578;28;20042;-71
2022/04/09 06:55:26;;;;;;;5.97;3.77;;;;;;;3.22;89.22;98986.88;8204184;28;20105;-69
2022/04/09 06:59:28;;;;;;;8.03;4.43;;;;;;;3.49;89.36;99002.78;8202593;28;20058;-69
2022/04/09 07:03:29;;;;;;;5.00;3.73;;;;;;;3.76;88.36;98997.25;8194088;28;20578;-70
2022/04/09 07:07:31;;;;;;;6.17;3.80;;;;;;;3.93;87.31;99003.50;8219108;28;20050;-70
2022/04/09 07:11:32;;;;;;;5.53;3.77;;;;;;;3.97;86.69;99013.88;8196620;28;20043;-69
2022/04/09 07:15:34;;;;;;;6.70;3.87;;;;;;;4.05;86.21;99019.97;8215410;28;20047;-69
2022/04/09 07:19:38;;;;;;;9.23;3.87;;;;;;;4.12;85.33;99029.47;8199346;28;20130;-70
2022/04/09 07:23:39;;;;;;;8.07;3.63;;;;;;;3.96;84.42;99042.97;8204906;28;20053;-69
2022/04/09 07:27:45;;;;;;;9.77;3.57;;;;;;;3.83;85.26;99042.75;8215459;28;20511;-69
2022/04/09 07:31:47;;;;;;;8.23;4.03;;;;;;;3.76;86.14;99051.16;8230218;28;20054;-70
2022/04/09 07:35:49;;;;;;;8.32;4.53;;;;;;;3.71;86.83;99055.38;8232916;28;20141;-69
2022/04/09 07:39:51;;;;;;;5.97;3.83;;;;;;;3.69;87.21;99058.75;8216869;28;20044;-69
2022/04/09 07:43:53;;;;;;;6.57;3.65;;;;;;;3.67;87.73;99058.72;8232345;28;20089;-69
2022/04/09 07:47:58;;;;;;;7.73;4.80;;;;;;;3.69;88.20;99064.75;8213051;28;20058;-69
2022/04/09 07:52:00;;;;;;;8.63;5.00;;;;;;;3.67;87.99;99066.44;8216002;28;20043;-70
2022/04/09 07:56:01;;;;;;;10.07;5.13;;;;;;;3.72;88.09;99074.19;8232364;28;20134;-70
2022/04/09 08:00:03;;;;;;;8.20;5.57;;;;;;;3.83;88.29;99073.56;8221732;28;20586;-70
2022/04/09 08:04:05;;;;;;;8.15;4.32;;;;;;;3.86;87.90;99075.31;8233306;28;20094;-70
2022/04/09 08:08:07;;;;;;;7.83;5.07;;;;;;;3.89;87.93;99070.22;8226337;28;20161;-71
2022/04/09 08:12:08;;;;;;;8.48;5.32;;;;;;;3.96;88.43;99074.63;8214865;28;20074;-70
2022/04/09 08:16:10;;;;;;;10.30;5.63;;;;;;;4.10;88.03;99073.13;8214935;28;20168;-70
2022/04/09 08:20:13;;;;;;;6.90;5.13;;;;;;;4.34;87.54;99072.69;8237827;28;20043;-71
2022/04/09 08:24:15;;;;;;;6.97;4.70;;;;;;;4.59;86.75;99079.03;8214178;28;20067;-69
2022/04/09 08:28:17;;;;;;;10.67;5.13;;;;;;;4.73;86.22;99082.66;8219711;28;20141;-70
2022/04/09 08:32:18;;;;;;;7.72;4.88;;;;;;;4.85;86.10;99084.56;8218969;28;20082;-69
2022/04/09 08:36:20;;;;;;;8.10;5.20;;;;;;;4.85;85.03;99077.69;8219955;28;20154;-70
2022/04/09 08:40:23;;;;;;;8.97;4.97;;;;;;;4.80;85.18;99078.47;8218644;28;20154;-70
2022/04/09 08:44:24;;;;;;;;;;;;;;;4.71;84.58;99086.06;8223446;28;20146;-69
2022/04/09 08:48:26;;;;;;;7.97;4.77;;;;;;;4.73;84.74;99095.53;8214526;28;20024;-70
2022/04/09 08:52:29;;;;;;;5.07;4.03;;;;;;;4.78;85.70;99098.16;8223324;28;20075;-69
2022/04/09 08:56:35;;;;;;;7.97;4.50;;;;;;;5.01;85.51;99098.44;8215117;28;20433;-69
2022/04/09 09:00:36;;;;;;;11.47;4.83;;;;;;;5.26;84.79;99097.06;8217682;28;20694;-69
2022/04/09 09:04:38;;;;;;;8.20;4.47;;;;;;;5.45;83.93;99097.31;8202983;28;20053;-69
2022/04/09 09:08:41;;;;;;;5.67;4.40;;;;;;;5.68;83.05;99101.81;8218841;28;20043;-69
2022/04/09 09:12:43;;;;;;;8.33;4.23;;;;;;;5.82;81.84;99102.84;8204113;28;20045;-69
2022/04/09 09:16:48;;;;;;;7.97;4.97;;;;;;;6.18;81.20;99104.91;8207015;28;20110;-69
2022/04/09 09:20:58;;;;;;;6.23;4.30;;;;;;;6.28;79.93;99111.00;8214952;28;20058;-68
2022/04/09 09:25:08;;;;;;;5.73;3.87;;;;;;;6.34;79.62;99119.66;8214750;28;20771;-68
2022/04/09 09:29:22;;;;;;;7.13;4.23;;;;;;;6.59;79.43;99112.97;8208975;28;20329;-68
2022/04/09 09:33:24;;;;;;;6.80;3.73;;;;;;;6.89;78.96;99116.59;8207021;28;20078;-69
2022/04/09 09:37:46;;;;;;;7.68;4.43;;;;;;;7.08;76.69;99114.97;8194378;28;20167;-69
2022/04/09 09:42:03;;;;;;;5.47;4.03;;;;;;;6.94;76.10;99120.06;8187798;28;20035;-69
2022/04/09 09:46:05;;;;;;;8.03;4.10;;;;;;;6.89;76.23;99114.88;8187445;28;20763;-69
2022/04/09 09:50:07;;;;;;;7.78;4.68;;;;;;;7.00;76.81;99117.50;8206839;28;20043;-69
2022/04/09 09:54:13;;;;;;;8.05;4.38;;;;;;;7.16;76.84;99114.16;8208253;28;20494;-68
2022/04/09 09:58:18;;;;;;;4.47;3.40;;;;;;;7.55;76.00;99131.56;8207806;28;20356;-68
2022/04/09 10:02:40;;;;;;;8.47;4.20;;;;;;;7.70;74.74;99130.72;8204617;28;20067;-67
2022/04/09 10:06:42;;;;;;;;;;;;;;;7.80;75.04;99129.91;8190816;28;20050;-67
2022/04/09 10:10:51;;;;;;;4.90;2.80;;;;;;;7.72;72.82;99136.78;8208198;28;19997;-67
2022/04/09 10:14:58;;;;;;;5.43;2.77;;;;;;;7.58;73.36;99139.31;8204020;28;20105;-68
2022/04/09 10:19:01;;;;;;;5.10;3.03;;;;;;;7.65;76.66;99145.34;8202014;28;20082;-68
2022/04/09 10:23:05;;;;;;;4.73;3.07;;;;;;;7.79;75.16;99142.81;8209007;28;20081;-67
2022/04/09 10:27:08;;;;;;;7.17;3.00;;;;;;;7.89;73.63;99148.00;8185405;28;20043;-68
2022/04/09 10:31:28;;;;;;;3.13;2.40;;;;;;;7.95;73.71;99146.31;8201571;28;20070;-68
2022/04/09 10:35:38;;;;;;;3.40;1.98;;;;;;;7.77;73.07;99150.56;8202005;28;20054;-68
2022/04/09 10:39:40;;;;;;;5.45;2.70;;;;;;;7.95;73.08;99151.47;8220359;28;20304;-70
2022/04/09 10:43:42;;;;;;;7.50;2.53;;;;;;;7.94;72.25;99153.19;8230295;28;20065;-70
2022/04/09 10:48:14;;;;;;;3.80;1.98;;;;;;;7.95;72.75;99156.66;8207506;28;20081;-70
2022/04/09 10:52:20;;;;;;;2.60;1.80;;;;;;;8.41;73.38;99161.03;8228957;28;20046;-68
2022/04/09 10:56:26;;;;;;;5.55;2.30;;;;;;;8.68;72.86;99155.00;8228831;28;20139;-68
2022/04/09 11:00:29;;;;;;;8.27;1.88;;;;;;;8.99;72.41;99163.59;8224191;28;20046;-68
2022/04/09 11:08:34;;;;;;;4.75;1.35;;;;;;;9.04;65.44;99161.00;8225018;28;20517;-68
2022/04/09 11:12:39;;;;;;;2.15;1.05;;;;;;;9.03;68.67;99167.06;8206654;28;20395;-68
2022/04/09 11:16:41;;;;;;;4.85;1.38;;;;;;;9.17;67.17;99161.84;8204786;28;20047;-67
2022/04/09 11:20:42;;;;;;;2.88;1.27;;;;;;;9.20;64.91;99170.47;8208081;28;20827;-68
2022/04/09 11:24:44;;;;;;;5.82;1.23;;;;;;;8.90;64.29;99165.34;8205879;28;20088;-69
2022/04/09 11:28:46;;;;;;;7.80;1.60;;;;;;;8.92;67.27;99161.00;8207754;28;20716;-69
2022/04/09 11:32:47;;;;;;;2.83;1.17;;;;;;;9.21;67.36;99164.41;8205024;28;20158;-70
2022/04/09 11:36:51;;;;;;;7.50;1.30;;;;;;;9.65;67.90;99160.78;8143352;28;20205;-70
2022/04/09 11:40:57;;;;;;;4.18;1.25;;;;;;;9.24;61.44;99172.19;8159381;29;20058;-70
2022/04/09 11:44:58;;;;;;;2.13;1.00;;;;;;;9.43;64.16;99164.34;8141344;29;20058;-71
2022/04/09 11:49:00;;;;;;;2.93;1.00;;;;;;;9.38;62.83;99160.06;8148229;28;20313;-71
2022/04/09 11:53:12;;;;;;;2.20;1.20;;;;;;;9.16;63.97;99173.06;8150195;29;20131;-71
2022/04/09 11:57:14;;;;;;;2.57;0.90;;;;;;;9.18;64.66;99172.19;8153275;29;20155;-70
2022/04/09 12:01:16;;;;;;;2.70;1.00;;;;;;;8.90;61.27;99168.78;8139987;29;20666;-71
2022/04/09 12:05:18;;;;;;;6.70;0.98;;;;;;;8.95;62.29;99164.44;8121125;29;20052;-71
2022/04/09 12:09:21;;;;;;;4.13;1.58;;;;;;;9.49;64.04;99152.22;8124629;29;20202;-71
2022/04/09 12:13:45;;;;;;;2.78;0.90;;;;;;;9.75;62.19;99156.44;8101941;29;20505;-71
2022/04/09 12:17:47;;;;;;;2.45;0.98;;;;;;;10.09;63.03;99152.78;8153696;28;20078;-71
2022/04/09 12:21:49;;;;;;;3.10;0.75;;;;;;;10.61;58.87;99177.53;8181945;28;20083;-71
2022/04/09 12:25:50;;;;;;;2.97;0.90;;;;;;;10.72;57.57;99160.97;8178430;29;20425;-71
2022/04/09 12:29:54;;;;;;;5.18;0.90;;;;;;;10.56;55.11;99156.78;8183085;29;20046;-70
2022/04/09 12:33:59;;;;;;;2.97;0.70;;;;;;;10.34;57.24;99163.03;8177965;28;20085;-71
2022/04/09 12:38:01;;;;;;;1.85;0.60;;;;;;;10.42;57.17;99159.53;8183006;29;20043;-70
2022/04/09 12:42:03;;;;;;;4.53;1.10;;;;;;;10.86;57.01;99156.53;8181130;29;20437;-70
2022/04/09 12:46:11;;;;;;;2.50;1.00;;;;;;;10.76;54.08;99159.22;8162264;28;20051;-70
2022/04/09 12:50:19;;;;;;;3.65;0.80;;;;;;;10.67;55.34;99162.78;8128690;29;20080;-71
2022/04/09 12:54:21;;;;;;;2.47;0.73;;;;;;;10.28;52.38;99166.53;8143253;29;20207;-71
2022/04/09 12:58:26;;;;;;;2.85;0.85;;;;;;;10.17;56.05;99161.38;8146932;29;20048;-70
2022/04/09 13:02:27;;;;;;;3.53;1.87;;;;;;;10.11;56.05;99157.97;8126724;29;20352;-71
2022/04/09 13:06:29;;;;;;;2.40;0.70;;;;;;;9.84;54.65;99159.84;8155135;29;20435;-71
2022/04/09 13:10:30;;;;;;;2.78;0.65;;;;;;;9.83;57.76;99150.34;8156148;29;20336;-71
2022/04/09 13:14:32;;;;;;;2.53;0.50;;;;;;;10.18;57.40;99149.25;8145552;29;20563;-70
2022/04/09 13:18:35;;;;;;;1.45;0.60;;;;;;;9.78;55.85;99162.47;8147415;29;20059;-72
2022/04/09 13:22:37;;;;;;;3.45;0.80;;;;;;;9.56;58.10;99172.06;8124134;29;20063;-73
2022/04/09 13:26:38;;;;;;;1.70;0.60;;;;;;;9.59;59.38;99166.88;8141827;29;20059;-73
2022/04/09 13:30:41;;;;;;;1.42;0.50;;;;;;;10.05;58.43;99170.94;8148232;29;20079;-73
2022/04/09 13:34:45;;;;;;;1.95;0.70;;;;;;;10.43;56.80;99158.66;8133007;29;20087;-73
2022/04/09 13:38:47;;;;;;;2.78;0.45;;;;;;;10.73;56.35;99156.66;8142974;29;20079;-73
2022/04/09 13:42:48;;;;;;;0.77;0.40;;;;;;;10.97;55.53;99147.78;8129197;29;20648;-72
2022/04/09 13:46:50;;;;;;;1.90;0.53;;;;;;;11.07;54.01;99142.47;8161375;29;20059;-73
2022/04/09 13:50:51;;;;;;;2.28;0.50;;;;;;;11.44;55.04;99144.66;8170233;29;20075;-73
2022/04/09 13:54:53;;;;;;;0.57;0.30;;;;;;;11.53;50.82;99133.28;8144013;29;20086;-73
2022/04/09 13:58:55;;;;;;;1.17;0.35;;;;;;;11.72;50.08;99127.84;8179104;29;20098;-73
2022/04/09 14:02:56;;;;;;;2.40;0.50;;;;;;;12.00;51.38;99125.72;8145119;28;20143;-72
2022/04/09 14:06:58;;;;;;;3.30;0.57;;;;;;;12.08;48.46;99123.03;8141299;29;20048;-72
2022/04/09 14:11:00;;;;;;;1.27;0.50;;;;;;;12.00;49.54;99115.31;8131089;29;20149;-72
2022/04/09 14:15:02;;;;;;;3.87;0.50;;;;;;;11.81;47.88;99103.47;8142313;29;20059;-72
2022/04/09 14:19:03;;;;;;;1.65;0.43;;;;;;;11.87;45.57;99111.19;8202076;28;20051;-72
2022/04/09 14:23:05;;;;;;;3.90;0.67;;;;;;;11.87;47.10;99103.41;8185047;28;20448;-72
2022/04/09 14:27:06;;;;;;;2.20;0.40;;;;;;;12.06;49.35;99109.19;8206632;28;20053;-73
2022/04/09 14:31:08;;;;;;;1.60;0.98;;;;;;;12.14;46.03;99103.84;8201355;28;20295;-73
2022/04/09 14:35:10;;;;;;;5.25;0.57;;;;;;;12.04;46.29;99116.16;8202825;28;20063;-73
2022/04/09 14:39:12;;;;;;;1.43;0.37;;;;;;;12.02;48.53;99115.28;8189939;28;20051;-72
2022/04/09 14:43:13;;;;;;;2.38;0.55;;;;;;;11.88;46.08;99112.06;8206031;28;20054;-73
2022/04/09 14:47:15;;;;;;;1.87;0.43;;;;;;;12.03;45.74;99104.91;8186286;28;20486;-73
2022/04/09 14:51:17;;;;;;;4.85;0.77;;;;;;;12.30;45.61;99100.13;8191310;28;20062;-73
2022/04/09 14:55:18;;;;;;;1.75;0.40;;;;;;;12.64;44.70;99103.03;8208315;28;20058;-72
2022/04/09 14:59:21;;;;;;;1.73;0.40;;;;;;;12.82;44.75;99114.88;8207865;28;20089;-72
2022/04/09 15:03:22;;;;;;;3.95;0.50;;;;;;;13.01;44.42;99109.28;8167460;28;20308;-73
2022/04/09 15:07:25;;;;;;;0.70;0.30;;;;;;;13.22;43.79;99109.81;8209665;28;20648;-73
2022/04/09 15:11:26;;;;;;;1.63;0.47;;;;;;;13.35;44.50;99113.91;8208411;28;20080;-73
2022/04/09 15:15:27;;;;;;;0.60;0.30;;;;;;;13.50;42.30;99124.03;8225880;28;20046;-73
2022/04/09 15:19:29;;;;;;;2.27;0.93;;;;;;;13.49;39.72;99127.53;8228262;28;20162;-73
2022/04/09 15:23:30;;;;;;;1.90;0.50;;;;;;;13.06;40.28;99131.81;8199110;28;20158;-74
2022/04/09 15:27:37;;;;;;;1.00;0.43;;;;;;;12.39;43.97;99152.94;8234473;28;20047;-73
2022/04/09 15:31:39;;;;;;;1.83;0.87;;;;;;;11.58;48.20;99173.09;8210007;28;20047;-73
2022/04/09 15:35:40;;;;;;;1.85;0.70;;;;;;;10.89;50.83;99190.25;8208400;28;20054;-73
2022/04/09 15:39:42;;;;;;;1.05;0.40;;;;;;;10.44;53.96;99208.81;8196369;28;20134;-73
2022/04/09 15:43:43;;;;;;;2.05;0.50;;;;;;;9.84;55.76;99200.47;8217250;28;20094;-73
2022/04/09 15:47:44;;;;;;;5.47;0.40;;;;;;;9.59;58.42;99191.94;8198436;28;20146;-73
2022/04/09 15:51:46;;;;;;;0.80;0.30;;;;;;;9.56;58.94;99199.72;8222315;28;20535;-73
2022/04/09 15:55:48;;;;;;;0.63;0.20;;;;;;;9.89;61.17;99199.59;8214902;28;20053;-73
2022/04/09 15:59:49;;;;;;;0.50;0.20;;;;;;;10.25;58.41;99193.38;8217063;28;20475;-73
2022/04/09 16:03:51;;;;;;;2.70;0.90;;;;;;;10.86;57.33;99182.50;8191168;28;20079;-73
2022/04/09 16:07:52;;;;;;;0.50;0.20;;;;;;;11.50;54.13;99183.59;8198510;28;20056;-72
2022/04/09 16:11:54;;;;;;;0.20;0.15;;;;;;;12.01;52.67;99184.69;8205048;28;20071;-73
2022/04/09 16:15:55;;;;;;;0.47;0.20;;;;;;;12.50;51.11;99186.59;8193247;28;20058;-73
2022/04/09 16:19:58;;;;;;;1.10;0.30;;;;;;;13.06;49.25;99191.75;8216134;28;20057;-73
2022/04/09 16:24:00;;;;;;;0.73;0.20;;;;;;;13.51;48.82;99183.13;8233652;28;20056;-73
2022/04/09 16:28:02;;;;;;;0.22;0.20;;;;;;;13.96;46.61;99177.84;8226737;28;20051;-72
2022/04/09 16:32:04;;;;;;;0.73;0.30;;;;;;;14.27;44.31;99185.00;8228781;28;20058;-73
2022/04/09 16:36:05;;;;;;;2.67;0.22;;;;;;;14.43;44.05;99184.66;8207637;28;20401;-73
2022/04/09 16:40:07;;;;;;;1.40;0.30;;;;;;;15.46;40.62;99193.38;8186622;28;20088;-74
2022/04/09 16:44:09;;;;;;;1.30;0.20;;;;;;;15.77;39.86;99192.53;8182192;28;20075;-73
2022/04/09 16:48:10;;;;;;;0.93;0.40;;;;;;;14.28;41.67;99186.72;8187172;28;20046;-73
2022/04/09 16:52:13;;;;;;;1.60;0.40;;;;;;;13.05;43.56;99195.25;8183542;28;21000;-73
2022/04/09 16:56:15;;;;;;;1.17;0.30;;;;;;;11.91;45.89;99206.53;8190220;28;20073;-73
2022/04/09 17:00:17;;;;;;;1.17;0.30;;;;;;;11.06;48.38;99204.84;8189262;28;20145;-72
2022/04/09 17:04:19;;;;;;;0.90;0.23;;;;;;;10.54;50.70;99202.69;8190844;28;20058;-73
2022/04/09 17:08:20;;;;;;;1.77;0.40;;;;;;;10.09;53.27;99203.81;8194053;28;20086;-73
2022/04/09 17:12:22;;;;;;;1.67;0.30;;;;;;;9.65;53.72;99207.44;8198446;28;20047;-73
2022/04/09 17:16:24;;;;;;;1.00;0.40;;;;;;;9.38;54.88;99211.00;8195277;28;20057;-72
2022/04/09 17:20:26;;;;;;;1.50;0.30;;;;;;;8.96;54.38;99210.19;8197861;28;20050;-73
2022/04/09 17:24:27;;;;;;;1.13;0.30;;;;;;;8.71;56.21;99214.53;8211824;28;20093;-73
2022/04/09 17:28:29;;;;;;;1.25;0.30;;;;;;;8.51;56.54;99223.16;8200632;28;20057;-73
2022/04/09 17:32:31;;;;;;;0.57;0.28;;;;;;;8.31;57.04;99234.31;8195330;28;20054;-72
2022/04/09 17:36:32;;;;;;;1.73;0.30;;;;;;;8.16;58.77;99236.84;8228386;28;20505;-73
2022/04/09 17:40:34;;;;;;;0.95;0.22;;;;;;;7.97;60.19;99237.66;8212062;28;20046;-73
2022/04/09 17:44:36;;;;;;;0.40;0.30;;;;;;;7.77;60.36;99238.44;8227246;28;20128;-72
2022/04/09 17:48:37;;;;;;;0.90;0.40;;;;;;;7.64;63.67;99248.72;8225061;28;21620;-73
2022/04/09 17:52:39;;;;;;;0.60;0.30;;;;;;;7.40;62.93;99255.47;8210430;28;20350;-73
2022/04/09 17:56:40;;;;;;;0.60;0.30;;;;;;;7.27;63.90;99257.09;8214438;28;20133;-72
2022/04/09 18:00:42;;;;;;;2.13;0.33;;;;;;;7.13;63.80;99269.03;8223203;28;20517;-73
2022/04/09 18:04:44;;;;;;;1.47;0.40;;;;;;;7.02;63.78;99273.28;8213138;28;20699;-72
2022/04/09 18:08:45;;;;;;;0.93;0.30;;;;;;;6.85;62.83;99278.31;8213806;28;20498;-73
2022/04/09 18:12:47;;;;;;;1.23;0.40;;;;;;;6.73;62.49;99285.94;8231651;28;20038;-73
2022/04/09 18:16:49;;;;;;;0.45;0.30;;;;;;;6.59;63.79;99296.09;8226460;28;20166;-73
2022/04/09 18:20:51;;;;;;;0.30;0.30;;;;;;;6.46;64.57;99312.31;8223359;28;20553;-73
2022/04/09 18:24:53;;;;;;;0.77;0.30;;;;;;;6.34;65.38;99314.75;8230970;28;20088;-73
2022/04/09 18:28:57;;;;;;;1.00;0.40;;;;;;;6.28;66.86;99322.41;8232155;28;20050;-73
2022/04/09 18:32:59;;;;;;;0.67;0.40;;;;;;;6.19;67.07;99319.75;8230303;28;20347;-73
2022/04/09 18:37:01;;;;;;;0.87;0.37;;;;;;;6.10;68.59;99320.47;8235478;28;20296;-73
2022/04/09 18:41:03;;;;;;;0.57;0.30;;;;;;;5.94;68.88;99318.59;8233713;28;20043;-73
2022/04/09 18:45:06;;;;;;;1.53;0.40;;;;;;;5.85;70.16;99323.56;8233023;28;20050;-73
2022/04/09 18:49:08;;;;;;;1.03;0.40;;;;;;;5.74;70.55;99341.44;8207059;28;20086;-73
2022/04/09 18:53:09;;;;;;;0.60;0.40;;;;;;;5.71;71.89;99354.28;8215595;28;20673;-73
2022/04/09 18:57:11;;;;;;;0.40;0.40;;;;;;;5.61;71.56;99362.75;8236013;28;20084;-73
2022/04/09 19:01:12;;;;;;;1.47;0.50;;;;;;;5.54;70.92;99378.94;8229891;28;20086;-73
2022/04/09 19:05:14;;;;;;;0.87;0.87;;;;;;;5.38;71.08;99373.53;8233707;28;20096;-73
2022/04/09 19:09:15;;;;;;;0.87;0.50;;;;;;;5.36;72.14;99388.09;8231192;28;20089;-73
2022/04/09 19:13:17;;;;;;;0.83;0.50;;;;;;;5.33;71.91;99382.91;8225213;28;20166;-73
2022/04/09 19:17:19;;;;;;;0.50;0.50;;;;;;;5.25;72.77;99381.91;8230959;28;20658;-73
2022/04/09 19:21:20;;;;;;;1.13;0.43;;;;;;;5.24;72.65;99385.34;8217372;28;20034;-73
2022/04/09 19:25:22;;;;;;;1.13;0.40;;;;;;;5.22;72.17;99384.44;8216814;28;20056;-73